sensor_id;sensor_type;location;lat;lon;timestamp;P1;durP1;ratioP1;P2;durP2;ratioP2
50161;SDS011;36061;48.116;11.612;2024-01-15T00:01:31;4.43;;;2.30;;
50161;SDS011;36061;48.116;11.612;2024-01-15T00:03:58;5.53;;;2.40;;
50161;SDS011;36061;48.116;11.612;2024-01-15T00:06:26;4.73;;;2.70;;
50161;SDS011;36061;48.116;11.612;2024-01-15T00:08:54;6.67;;;2.93;;
50161;SDS011;36061;48.116;11.612;2024-01-15T00:11:23;5.07;;;2.77;;
50161;SDS011;36061;48.116;11.612;2024-01-15T00:13:51;6.70;;;3.20;;
50161;SDS011;36061;48.116;11.612;2024-01-15T00:16:18;5.60;;;2.87;;
50161;SDS011;36061;48.116;11.612;2024-01-15T00:18:47;6.47;;;3.30;;
50161;SDS011;36061;48.116;11.612;2024-01-15T00:21:14;5.13;;;3.23;;
50161;SDS011;36061;48.116;11.612;2024-01-15T00:23:42;3.40;;;2.60;;
50161;SDS011;36061;48.116;11.612;2024-01-15T00:26:10;4.73;;;3.20;;
50161;SDS011;36061;48.116;11.612;2024-01-15T00:28:37;6.57;;;3.10;;
50161;SDS011;36061;48.116;11.612;2024-01-15T00:31:04;6.10;;;3.30;;
50161;SDS011;36061;48.116;11.612;2024-01-15T00:33:32;6.43;;;2.73;;
50161;SDS011;36061;48.116;11.612;2024-01-15T00:36:00;7.77;;;3.87;;
50161;SDS011;36061;48.116;11.612;2024-01-15T00:38:28;5.47;;;2.90;;
50161;SDS011;36061;48.116;11.612;2024-01-15T00:40:56;4.53;;;2.77;;
50161;SDS011;36061;48.116;11.612;2024-01-15T00:43:23;6.67;;;3.77;;
50161;SDS011;36061;48.116;11.612;2024-01-15T00:45:51;7.07;;;3.70;;
50161;SDS011;36061;48.116;11.612;2024-01-15T00:48:18;7.23;;;3.77;;
50161;SDS011;36061;48.116;11.612;2024-01-15T00:50:45;6.33;;;3.67;;
50161;SDS011;36061;48.116;11.612;2024-01-15T00:53:14;5.33;;;3.03;;
50161;SDS011;36061;48.116;11.612;2024-01-15T00:55:41;4.67;;;2.70;;
50161;SDS011;36061;48.116;11.612;2024-01-15T00:58:09;6.50;;;3.60;;
50161;SDS011;36061;48.116;11.612;2024-01-15T01:00:36;6.90;;;3.43;;
50161;SDS011;36061;48.116;11.612;2024-01-15T01:03:03;6.30;;;3.40;;
50161;SDS011;36061;48.116;11.612;2024-01-15T01:05:31;9.23;;;4.23;;
50161;SDS011;36061;48.116;11.612;2024-01-15T01:07:58;7.33;;;3.50;;
50161;SDS011;36061;48.116;11.612;2024-01-15T01:10:27;7.30;;;4.10;;
50161;SDS011;36061;48.116;11.612;2024-01-15T01:12:54;6.83;;;3.77;;
50161;SDS011;36061;48.116;11.612;2024-01-15T01:15:22;8.43;;;4.50;;
50161;SDS011;36061;48.116;11.612;2024-01-15T01:17:50;7.33;;;4.20;;
50161;SDS011;36061;48.116;11.612;2024-01-15T01:20:17;7.97;;;4.83;;
50161;SDS011;36061;48.116;11.612;2024-01-15T01:22:45;9.20;;;4.57;;
50161;SDS011;36061;48.116;11.612;2024-01-15T01:25:12;11.17;;;5.43;;
50161;SDS011;36061;48.116;11.612;2024-01-15T01:27:41;8.77;;;4.93;;
50161;SDS011;36061;48.116;11.612;2024-01-15T01:30:08;6.47;;;3.80;;
50161;SDS011;36061;48.116;11.612;2024-01-15T01:32:36;10.20;;;4.90;;
50161;SDS011;36061;48.116;11.612;2024-01-15T01:35:04;9.83;;;4.93;;
50161;SDS011;36061;48.116;11.612;2024-01-15T01:37:32;7.97;;;4.50;;
50161;SDS011;36061;48.116;11.612;2024-01-15T01:40:00;9.07;;;4.73;;
50161;SDS011;36061;48.116;11.612;2024-01-15T01:42:27;10.83;;;4.60;;
50161;SDS011;36061;48.116;11.612;2024-01-15T01:44:56;10.80;;;5.43;;
50161;SDS011;36061;48.116;11.612;2024-01-15T01:47:23;9.03;;;4.47;;
50161;SDS011;36061;48.116;11.612;2024-01-15T01:49:51;9.20;;;4.83;;
50161;SDS011;36061;48.116;11.612;2024-01-15T01:52:19;9.77;;;4.70;;
50161;SDS011;36061;48.116;11.612;2024-01-15T01:54:46;9.93;;;4.77;;
50161;SDS011;36061;48.116;11.612;2024-01-15T01:57:14;10.70;;;4.73;;
50161;SDS011;36061;48.116;11.612;2024-01-15T01:59:43;8.83;;;5.00;;
50161;SDS011;36061;48.116;11.612;2024-01-15T02:02:12;9.37;;;4.50;;
50161;SDS011;36061;48.116;11.612;2024-01-15T02:04:41;7.63;;;4.50;;
50161;SDS011;36061;48.116;11.612;2024-01-15T02:07:08;7.23;;;4.40;;
50161;SDS011;36061;48.116;11.612;2024-01-15T02:09:36;9.27;;;4.20;;
50161;SDS011;36061;48.116;11.612;2024-01-15T02:12:04;7.27;;;4.20;;
50161;SDS011;36061;48.116;11.612;2024-01-15T02:14:32;7.50;;;4.47;;
50161;SDS011;36061;48.116;11.612;2024-01-15T02:16:59;8.67;;;4.27;;
50161;SDS011;36061;48.116;11.612;2024-01-15T02:19:28;7.37;;;4.40;;
50161;SDS011;36061;48.116;11.612;2024-01-15T02:21:56;10.50;;;4.23;;
50161;SDS011;36061;48.116;11.612;2024-01-15T02:24:24;5.63;;;3.20;;
50161;SDS011;36061;48.116;11.612;2024-01-15T02:26:52;8.50;;;4.97;;
50161;SDS011;36061;48.116;11.612;2024-01-15T02:29:19;5.80;;;3.70;;
50161;SDS011;36061;48.116;11.612;2024-01-15T02:31:47;12.60;;;4.73;;
50161;SDS011;36061;48.116;11.612;2024-01-15T02:34:14;8.10;;;4.37;;
50161;SDS011;36061;48.116;11.612;2024-01-15T02:36:41;8.87;;;4.63;;
50161;SDS011;36061;48.116;11.612;2024-01-15T02:39:09;8.60;;;4.67;;
50161;SDS011;36061;48.116;11.612;2024-01-15T02:41:37;7.80;;;4.83;;
50161;SDS011;36061;48.116;11.612;2024-01-15T02:44:05;9.37;;;5.00;;
50161;SDS011;36061;48.116;11.612;2024-01-15T02:46:32;7.03;;;4.67;;
50161;SDS011;36061;48.116;11.612;2024-01-15T02:48:59;9.70;;;4.60;;
50161;SDS011;36061;48.116;11.612;2024-01-15T02:51:27;8.80;;;5.03;;
50161;SDS011;36061;48.116;11.612;2024-01-15T02:53:54;6.77;;;4.50;;
50161;SDS011;36061;48.116;11.612;2024-01-15T02:56:21;8.63;;;4.63;;
50161;SDS011;36061;48.116;11.612;2024-01-15T02:58:50;7.90;;;3.93;;
50161;SDS011;36061;48.116;11.612;2024-01-15T03:01:18;9.20;;;4.30;;
50161;SDS011;36061;48.116;11.612;2024-01-15T03:03:45;7.13;;;4.33;;
50161;SDS011;36061;48.116;11.612;2024-01-15T03:06:13;7.47;;;4.10;;
50161;SDS011;36061;48.116;11.612;2024-01-15T03:08:40;8.03;;;4.03;;
50161;SDS011;36061;48.116;11.612;2024-01-15T03:11:07;9.20;;;4.47;;
50161;SDS011;36061;48.116;11.612;2024-01-15T03:13:35;7.20;;;3.33;;
50161;SDS011;36061;48.116;11.612;2024-01-15T03:16:05;7.63;;;3.80;;
50161;SDS011;36061;48.116;11.612;2024-01-15T03:18:32;9.00;;;4.20;;
50161;SDS011;36061;48.116;11.612;2024-01-15T03:21:00;8.47;;;4.53;;
50161;SDS011;36061;48.116;11.612;2024-01-15T03:23:27;8.40;;;3.77;;
50161;SDS011;36061;48.116;11.612;2024-01-15T03:25:54;7.57;;;4.23;;
50161;SDS011;36061;48.116;11.612;2024-01-15T03:28:22;7.00;;;3.57;;
50161;SDS011;36061;48.116;11.612;2024-01-15T03:30:49;7.00;;;3.53;;
50161;SDS011;36061;48.116;11.612;2024-01-15T03:33:18;7.10;;;3.57;;
50161;SDS011;36061;48.116;11.612;2024-01-15T03:35:45;6.77;;;3.80;;
50161;SDS011;36061;48.116;11.612;2024-01-15T03:38:12;5.27;;;3.23;;
50161;SDS011;36061;48.116;11.612;2024-01-15T03:40:40;6.30;;;3.23;;
50161;SDS011;36061;48.116;11.612;2024-01-15T03:43:07;6.87;;;3.63;;
50161;SDS011;36061;48.116;11.612;2024-01-15T03:45:34;6.80;;;3.83;;
50161;SDS011;36061;48.116;11.612;2024-01-15T03:48:02;6.50;;;3.70;;
50161;SDS011;36061;48.116;11.612;2024-01-15T03:50:31;6.37;;;3.70;;
50161;SDS011;36061;48.116;11.612;2024-01-15T03:52:58;6.67;;;3.17;;
50161;SDS011;36061;48.116;11.612;2024-01-15T03:55:26;8.23;;;4.00;;
50161;SDS011;36061;48.116;11.612;2024-01-15T03:57:53;9.47;;;4.27;;
50161;SDS011;36061;48.116;11.612;2024-01-15T04:00:20;5.47;;;3.70;;
50161;SDS011;36061;48.116;11.612;2024-01-15T04:02:48;8.20;;;3.87;;
50161;SDS011;36061;48.116;11.612;2024-01-15T04:05:15;8.00;;;3.27;;
50161;SDS011;36061;48.116;11.612;2024-01-15T04:07:44;7.40;;;4.43;;
50161;SDS011;36061;48.116;11.612;2024-01-15T04:10:11;5.73;;;3.60;;
50161;SDS011;36061;48.116;11.612;2024-01-15T04:12:39;6.23;;;3.63;;
50161;SDS011;36061;48.116;11.612;2024-01-15T04:15:06;6.07;;;3.60;;
50161;SDS011;36061;48.116;11.612;2024-01-15T04:17:34;5.37;;;3.33;;
50161;SDS011;36061;48.116;11.612;2024-01-15T04:20:02;6.77;;;3.20;;
50161;SDS011;36061;48.116;11.612;2024-01-15T04:22:29;8.67;;;4.27;;
50161;SDS011;36061;48.116;11.612;2024-01-15T04:24:58;7.33;;;3.70;;
50161;SDS011;36061;48.116;11.612;2024-01-15T04:27:26;9.40;;;4.07;;
50161;SDS011;36061;48.116;11.612;2024-01-15T04:29:53;6.97;;;3.63;;
50161;SDS011;36061;48.116;11.612;2024-01-15T04:32:20;6.83;;;3.40;;
50161;SDS011;36061;48.116;11.612;2024-01-15T04:34:48;7.93;;;3.40;;
50161;SDS011;36061;48.116;11.612;2024-01-15T04:37:15;4.40;;;3.23;;
50161;SDS011;36061;48.116;11.612;2024-01-15T04:39:42;4.63;;;3.30;;
50161;SDS011;36061;48.116;11.612;2024-01-15T04:42:11;7.23;;;3.43;;
50161;SDS011;36061;48.116;11.612;2024-01-15T04:44:38;7.03;;;3.43;;
50161;SDS011;36061;48.116;11.612;2024-01-15T04:47:06;5.77;;;3.07;;
50161;SDS011;36061;48.116;11.612;2024-01-15T04:49:33;6.23;;;3.50;;
50161;SDS011;36061;48.116;11.612;2024-01-15T04:52:00;6.70;;;3.43;;
50161;SDS011;36061;48.116;11.612;2024-01-15T04:54:28;6.87;;;3.63;;
50161;SDS011;36061;48.116;11.612;2024-01-15T04:56:55;7.90;;;3.37;;
50161;SDS011;36061;48.116;11.612;2024-01-15T04:59:24;5.90;;;3.00;;
50161;SDS011;36061;48.116;11.612;2024-01-15T05:01:51;4.30;;;3.00;;
50161;SDS011;36061;48.116;11.612;2024-01-15T05:04:19;5.90;;;3.37;;
50161;SDS011;36061;48.116;11.612;2024-01-15T05:06:46;5.97;;;3.10;;
50161;SDS011;36061;48.116;11.612;2024-01-15T05:09:13;6.80;;;4.00;;
50161;SDS011;36061;48.116;11.612;2024-01-15T05:11:41;8.40;;;3.30;;
50161;SDS011;36061;48.116;11.612;2024-01-15T05:14:08;4.03;;;2.40;;
50161;SDS011;36061;48.116;11.612;2024-01-15T05:16:39;6.43;;;3.47;;
50161;SDS011;36061;48.116;11.612;2024-01-15T05:19:07;3.93;;;2.50;;
50161;SDS011;36061;48.116;11.612;2024-01-15T05:21:34;6.03;;;3.17;;
50161;SDS011;36061;48.116;11.612;2024-01-15T05:24:02;5.10;;;3.00;;
50161;SDS011;36061;48.116;11.612;2024-01-15T05:26:29;9.00;;;3.57;;
50161;SDS011;36061;48.116;11.612;2024-01-15T05:28:56;3.10;;;2.10;;
50161;SDS011;36061;48.116;11.612;2024-01-15T05:31:24;6.83;;;3.50;;
50161;SDS011;36061;48.116;11.612;2024-01-15T05:33:52;6.90;;;3.17;;
50161;SDS011;36061;48.116;11.612;2024-01-15T05:36:20;5.40;;;2.60;;
50161;SDS011;36061;48.116;11.612;2024-01-15T05:38:47;3.93;;;2.70;;
50161;SDS011;36061;48.116;11.612;2024-01-15T05:41:15;5.07;;;3.23;;
50161;SDS011;36061;48.116;11.612;2024-01-15T05:43:42;4.77;;;3.20;;
50161;SDS011;36061;48.116;11.612;2024-01-15T05:46:09;4.00;;;2.90;;
50161;SDS011;36061;48.116;11.612;2024-01-15T05:48:37;7.17;;;3.37;;
50161;SDS011;36061;48.116;11.612;2024-01-15T05:51:05;5.10;;;3.03;;
50161;SDS011;36061;48.116;11.612;2024-01-15T05:53:33;5.90;;;2.93;;
50161;SDS011;36061;48.116;11.612;2024-01-15T05:56:00;4.93;;;2.57;;
50161;SDS011;36061;48.116;11.612;2024-01-15T05:58:28;6.87;;;3.20;;
50161;SDS011;36061;48.116;11.612;2024-01-15T06:00:55;5.30;;;2.67;;
50161;SDS011;36061;48.116;11.612;2024-01-15T06:03:22;9.73;;;3.43;;
50161;SDS011;36061;48.116;11.612;2024-01-15T06:05:49;6.67;;;3.17;;
50161;SDS011;36061;48.116;11.612;2024-01-15T06:08:17;4.97;;;2.43;;
50161;SDS011;36061;48.116;11.612;2024-01-15T06:10:46;5.33;;;2.80;;
50161;SDS011;36061;48.116;11.612;2024-01-15T06:13:13;6.33;;;3.37;;
50161;SDS011;36061;48.116;11.612;2024-01-15T06:15:41;5.70;;;2.90;;
50161;SDS011;36061;48.116;11.612;2024-01-15T06:18:08;3.83;;;2.70;;
50161;SDS011;36061;48.116;11.612;2024-01-15T06:20:35;6.07;;;2.70;;
50161;SDS011;36061;48.116;11.612;2024-01-15T06:23:03;5.47;;;2.50;;
50161;SDS011;36061;48.116;11.612;2024-01-15T06:25:32;4.23;;;2.97;;
50161;SDS011;36061;48.116;11.612;2024-01-15T06:27:59;4.73;;;3.37;;
50161;SDS011;36061;48.116;11.612;2024-01-15T06:30:27;4.03;;;2.60;;
50161;SDS011;36061;48.116;11.612;2024-01-15T06:32:55;6.57;;;2.90;;
50161;SDS011;36061;48.116;11.612;2024-01-15T06:35:22;6.03;;;3.13;;
50161;SDS011;36061;48.116;11.612;2024-01-15T06:37:50;6.87;;;2.70;;
50161;SDS011;36061;48.116;11.612;2024-01-15T06:40:17;3.67;;;2.67;;
50161;SDS011;36061;48.116;11.612;2024-01-15T06:42:46;3.83;;;2.60;;
50161;SDS011;36061;48.116;11.612;2024-01-15T06:45:13;5.50;;;3.07;;
50161;SDS011;36061;48.116;11.612;2024-01-15T06:47:41;4.77;;;2.87;;
50161;SDS011;36061;48.116;11.612;2024-01-15T06:50:08;3.67;;;2.57;;
50161;SDS011;36061;48.116;11.612;2024-01-15T06:52:36;6.87;;;3.27;;
50161;SDS011;36061;48.116;11.612;2024-01-15T06:55:03;4.20;;;2.70;;
50161;SDS011;36061;48.116;11.612;2024-01-15T06:57:31;5.73;;;2.80;;
50161;SDS011;36061;48.116;11.612;2024-01-15T07:00:00;7.23;;;3.17;;
50161;SDS011;36061;48.116;11.612;2024-01-15T07:02:33;4.23;;;2.73;;
50161;SDS011;36061;48.116;11.612;2024-01-15T07:05:00;5.23;;;3.20;;
50161;SDS011;36061;48.116;11.612;2024-01-15T07:07:30;4.73;;;2.47;;
50161;SDS011;36061;48.116;11.612;2024-01-15T07:09:58;4.83;;;2.37;;
50161;SDS011;36061;48.116;11.612;2024-01-15T07:12:25;4.13;;;2.40;;
50161;SDS011;36061;48.116;11.612;2024-01-15T07:14:52;12.97;;;3.30;;
50161;SDS011;36061;48.116;11.612;2024-01-15T07:17:21;4.37;;;2.60;;
50161;SDS011;36061;48.116;11.612;2024-01-15T07:19:49;6.27;;;3.00;;
50161;SDS011;36061;48.116;11.612;2024-01-15T07:22:16;4.87;;;2.50;;
50161;SDS011;36061;48.116;11.612;2024-01-15T07:24:43;6.17;;;2.87;;
50161;SDS011;36061;48.116;11.612;2024-01-15T07:27:11;5.87;;;2.73;;
50161;SDS011;36061;48.116;11.612;2024-01-15T07:29:38;3.90;;;2.43;;
50161;SDS011;36061;48.116;11.612;2024-01-15T07:32:05;6.47;;;3.27;;
50161;SDS011;36061;48.116;11.612;2024-01-15T07:34:35;6.47;;;3.13;;
50161;SDS011;36061;48.116;11.612;2024-01-15T07:37:02;5.97;;;3.07;;
50161;SDS011;36061;48.116;11.612;2024-01-15T07:39:30;5.87;;;3.40;;
50161;SDS011;36061;48.116;11.612;2024-01-15T07:41:57;7.67;;;3.67;;
50161;SDS011;36061;48.116;11.612;2024-01-15T07:44:25;6.00;;;3.43;;
50161;SDS011;36061;48.116;11.612;2024-01-15T07:46:52;4.73;;;3.10;;
50161;SDS011;36061;48.116;11.612;2024-01-15T07:49:19;6.07;;;3.20;;
50161;SDS011;36061;48.116;11.612;2024-01-15T07:51:50;7.30;;;3.63;;
50161;SDS011;36061;48.116;11.612;2024-01-15T07:54:17;5.63;;;2.87;;
50161;SDS011;36061;48.116;11.612;2024-01-15T07:56:54;6.27;;;3.20;;
50161;SDS011;36061;48.116;11.612;2024-01-15T07:59:25;5.87;;;3.17;;
50161;SDS011;36061;48.116;11.612;2024-01-15T08:01:53;5.13;;;3.00;;
50161;SDS011;36061;48.116;11.612;2024-01-15T08:04:20;6.87;;;4.03;;
50161;SDS011;36061;48.116;11.612;2024-01-15T08:06:49;4.60;;;2.87;;
50161;SDS011;36061;48.116;11.612;2024-01-15T08:09:17;5.80;;;3.07;;
50161;SDS011;36061;48.116;11.612;2024-01-15T08:11:44;4.57;;;3.40;;
50161;SDS011;36061;48.116;11.612;2024-01-15T08:14:12;6.20;;;3.27;;
50161;SDS011;36061;48.116;11.612;2024-01-15T08:16:39;5.57;;;3.30;;
50161;SDS011;36061;48.116;11.612;2024-01-15T08:19:06;5.30;;;3.40;;
50161;SDS011;36061;48.116;11.612;2024-01-15T08:21:34;9.93;;;3.37;;
50161;SDS011;36061;48.116;11.612;2024-01-15T08:24:03;5.60;;;2.70;;
50161;SDS011;36061;48.116;11.612;2024-01-15T08:26:31;4.67;;;2.93;;
50161;SDS011;36061;48.116;11.612;2024-01-15T08:28:59;6.20;;;3.30;;
50161;SDS011;36061;48.116;11.612;2024-01-15T08:31:26;9.83;;;4.37;;
50161;SDS011;36061;48.116;11.612;2024-01-15T08:33:53;3.90;;;2.73;;
50161;SDS011;36061;48.116;11.612;2024-01-15T08:36:21;7.30;;;3.43;;
50161;SDS011;36061;48.116;11.612;2024-01-15T08:38:49;5.83;;;3.10;;
50161;SDS011;36061;48.116;11.612;2024-01-15T08:41:18;4.00;;;2.60;;
50161;SDS011;36061;48.116;11.612;2024-01-15T08:43:46;4.33;;;2.77;;
50161;SDS011;36061;48.116;11.612;2024-01-15T08:46:13;7.07;;;2.97;;
50161;SDS011;36061;48.116;11.612;2024-01-15T08:48:40;7.27;;;3.23;;
50161;SDS011;36061;48.116;11.612;2024-01-15T08:51:08;3.73;;;2.23;;
50161;SDS011;36061;48.116;11.612;2024-01-15T08:53:35;5.93;;;3.20;;
50161;SDS011;36061;48.116;11.612;2024-01-15T08:56:03;7.27;;;3.90;;
50161;SDS011;36061;48.116;11.612;2024-01-15T08:58:32;4.73;;;3.57;;
50161;SDS011;36061;48.116;11.612;2024-01-15T09:01:00;4.27;;;2.90;;
50161;SDS011;36061;48.116;11.612;2024-01-15T09:03:52;8.10;;;3.40;;
50161;SDS011;36061;48.116;11.612;2024-01-15T09:06:19;5.77;;;2.50;;
50161;SDS011;36061;48.116;11.612;2024-01-15T09:08:47;6.30;;;3.83;;
50161;SDS011;36061;48.116;11.612;2024-01-15T09:11:14;5.60;;;3.40;;
50161;SDS011;36061;48.116;11.612;2024-01-15T09:13:43;6.27;;;3.30;;
50161;SDS011;36061;48.116;11.612;2024-01-15T09:16:10;6.40;;;3.47;;
50161;SDS011;36061;48.116;11.612;2024-01-15T09:18:38;7.27;;;3.87;;
50161;SDS011;36061;48.116;11.612;2024-01-15T09:21:05;4.53;;;2.87;;
50161;SDS011;36061;48.116;11.612;2024-01-15T09:23:32;7.27;;;3.23;;
50161;SDS011;36061;48.116;11.612;2024-01-15T09:26:01;4.30;;;2.30;;
50161;SDS011;36061;48.116;11.612;2024-01-15T09:28:28;5.60;;;3.47;;
50161;SDS011;36061;48.116;11.612;2024-01-15T09:30:57;6.10;;;3.00;;
50161;SDS011;36061;48.116;11.612;2024-01-15T09:33:24;4.97;;;2.80;;
50161;SDS011;36061;48.116;11.612;2024-01-15T09:35:52;10.47;;;3.40;;
50161;SDS011;36061;48.116;11.612;2024-01-15T09:38:19;6.57;;;3.60;;
50161;SDS011;36061;48.116;11.612;2024-01-15T09:40:47;6.13;;;3.23;;
50161;SDS011;36061;48.116;11.612;2024-01-15T09:43:14;6.17;;;2.77;;
50161;SDS011;36061;48.116;11.612;2024-01-15T09:45:43;12.07;;;4.40;;
50161;SDS011;36061;48.116;11.612;2024-01-15T09:48:13;6.07;;;3.30;;
50161;SDS011;36061;48.116;11.612;2024-01-15T09:50:40;6.43;;;2.83;;
50161;SDS011;36061;48.116;11.612;2024-01-15T09:53:07;7.77;;;3.43;;
50161;SDS011;36061;48.116;11.612;2024-01-15T09:55:36;5.77;;;2.73;;
50161;SDS011;36061;48.116;11.612;2024-01-15T09:58:04;9.07;;;3.73;;
50161;SDS011;36061;48.116;11.612;2024-01-15T10:00:33;7.07;;;3.30;;
50161;SDS011;36061;48.116;11.612;2024-01-15T10:03:04;5.23;;;2.67;;
50161;SDS011;36061;48.116;11.612;2024-01-15T10:05:34;5.03;;;3.43;;
50161;SDS011;36061;48.116;11.612;2024-01-15T10:08:01;4.53;;;2.90;;
50161;SDS011;36061;48.116;11.612;2024-01-15T10:10:30;5.23;;;2.90;;
50161;SDS011;36061;48.116;11.612;2024-01-15T10:12:58;7.20;;;3.50;;
50161;SDS011;36061;48.116;11.612;2024-01-15T10:15:25;5.93;;;3.20;;
50161;SDS011;36061;48.116;11.612;2024-01-15T10:17:53;4.13;;;2.53;;
50161;SDS011;36061;48.116;11.612;2024-01-15T10:20:21;3.03;;;2.50;;
50161;SDS011;36061;48.116;11.612;2024-01-15T10:22:50;4.93;;;1.93;;
50161;SDS011;36061;48.116;11.612;2024-01-15T10:25:17;5.90;;;2.17;;
50161;SDS011;36061;48.116;11.612;2024-01-15T10:27:59;3.70;;;2.20;;
50161;SDS011;36061;48.116;11.612;2024-01-15T10:30:27;3.43;;;2.27;;
50161;SDS011;36061;48.116;11.612;2024-01-15T10:32:58;4.00;;;2.20;;
50161;SDS011;36061;48.116;11.612;2024-01-15T10:35:27;9.20;;;2.70;;
50161;SDS011;36061;48.116;11.612;2024-01-15T10:37:57;2.93;;;1.83;;
50161;SDS011;36061;48.116;11.612;2024-01-15T10:40:25;6.77;;;3.27;;
50161;SDS011;36061;48.116;11.612;2024-01-15T10:42:52;6.13;;;3.50;;
50161;SDS011;36061;48.116;11.612;2024-01-15T10:45:20;3.13;;;2.30;;
50161;SDS011;36061;48.116;11.612;2024-01-15T10:47:48;4.50;;;2.33;;
50161;SDS011;36061;48.116;11.612;2024-01-15T10:50:18;3.47;;;2.43;;
50161;SDS011;36061;48.116;11.612;2024-01-15T10:52:46;5.07;;;3.03;;
50161;SDS011;36061;48.116;11.612;2024-01-15T10:55:15;2.90;;;2.07;;
50161;SDS011;36061;48.116;11.612;2024-01-15T10:57:43;4.20;;;2.20;;
50161;SDS011;36061;48.116;11.612;2024-01-15T11:00:12;3.50;;;1.87;;
50161;SDS011;36061;48.116;11.612;2024-01-15T11:02:40;5.77;;;1.83;;
50161;SDS011;36061;48.116;11.612;2024-01-15T11:05:10;5.27;;;2.57;;
50161;SDS011;36061;48.116;11.612;2024-01-15T11:07:38;2.80;;;2.47;;
50161;SDS011;36061;48.116;11.612;2024-01-15T11:10:07;5.60;;;2.43;;
50161;SDS011;36061;48.116;11.612;2024-01-15T11:12:56;3.13;;;1.63;;
50161;SDS011;36061;48.116;11.612;2024-01-15T11:15:24;4.53;;;2.23;;
50161;SDS011;36061;48.116;11.612;2024-01-15T11:17:57;2.90;;;1.90;;
50161;SDS011;36061;48.116;11.612;2024-01-15T11:20:26;5.90;;;2.23;;
50161;SDS011;36061;48.116;11.612;2024-01-15T11:22:54;3.20;;;2.20;;
50161;SDS011;36061;48.116;11.612;2024-01-15T11:25:23;3.47;;;1.60;;
50161;SDS011;36061;48.116;11.612;2024-01-15T11:27:51;3.03;;;1.87;;
50161;SDS011;36061;48.116;11.612;2024-01-15T11:30:24;3.80;;;2.10;;
50161;SDS011;36061;48.116;11.612;2024-01-15T11:32:52;5.00;;;2.20;;
50161;SDS011;36061;48.116;11.612;2024-01-15T11:35:19;2.20;;;1.53;;
50161;SDS011;36061;48.116;11.612;2024-01-15T11:37:58;4.20;;;2.27;;
50161;SDS011;36061;48.116;11.612;2024-01-15T11:40:36;2.30;;;1.80;;
50161;SDS011;36061;48.116;11.612;2024-01-15T11:43:05;3.93;;;2.07;;
50161;SDS011;36061;48.116;11.612;2024-01-15T11:45:35;4.97;;;1.53;;
50161;SDS011;36061;48.116;11.612;2024-01-15T11:48:11;2.73;;;1.73;;
50161;SDS011;36061;48.116;11.612;2024-01-15T11:50:41;2.10;;;1.50;;
50161;SDS011;36061;48.116;11.612;2024-01-15T11:56:01;2.97;;;1.70;;
50161;SDS011;36061;48.116;11.612;2024-01-15T11:58:29;5.60;;;1.67;;
50161;SDS011;36061;48.116;11.612;2024-01-15T12:00:58;3.93;;;1.80;;
50161;SDS011;36061;48.116;11.612;2024-01-15T12:03:26;2.73;;;1.63;;
50161;SDS011;36061;48.116;11.612;2024-01-15T12:05:53;2.53;;;1.80;;
50161;SDS011;36061;48.116;11.612;2024-01-15T12:08:21;3.27;;;1.60;;
50161;SDS011;36061;48.116;11.612;2024-01-15T12:10:48;3.70;;;2.27;;
50161;SDS011;36061;48.116;11.612;2024-01-15T12:13:16;2.87;;;1.70;;
50161;SDS011;36061;48.116;11.612;2024-01-15T12:15:44;5.50;;;1.60;;
50161;SDS011;36061;48.116;11.612;2024-01-15T12:18:14;2.33;;;1.30;;
50161;SDS011;36061;48.116;11.612;2024-01-15T12:20:42;1.70;;;1.30;;
50161;SDS011;36061;48.116;11.612;2024-01-15T12:23:12;2.57;;;1.70;;
50161;SDS011;36061;48.116;11.612;2024-01-15T12:25:40;4.70;;;1.40;;
50161;SDS011;36061;48.116;11.612;2024-01-15T12:28:07;2.57;;;1.93;;
50161;SDS011;36061;48.116;11.612;2024-01-15T12:30:35;3.53;;;2.13;;
50161;SDS011;36061;48.116;11.612;2024-01-15T12:33:03;3.00;;;1.37;;
50161;SDS011;36061;48.116;11.612;2024-01-15T12:35:33;2.30;;;1.73;;
50161;SDS011;36061;48.116;11.612;2024-01-15T12:38:00;3.57;;;1.83;;
50161;SDS011;36061;48.116;11.612;2024-01-15T12:40:28;1.97;;;1.30;;
50161;SDS011;36061;48.116;11.612;2024-01-15T12:42:57;2.73;;;1.83;;
50161;SDS011;36061;48.116;11.612;2024-01-15T12:45:24;2.10;;;1.70;;
50161;SDS011;36061;48.116;11.612;2024-01-15T12:47:52;2.03;;;1.37;;
50161;SDS011;36061;48.116;11.612;2024-01-15T12:50:23;3.20;;;1.40;;
50161;SDS011;36061;48.116;11.612;2024-01-15T12:52:53;2.67;;;1.50;;
50161;SDS011;36061;48.116;11.612;2024-01-15T12:55:21;1.83;;;1.40;;
50161;SDS011;36061;48.116;11.612;2024-01-15T12:57:48;1.83;;;1.53;;
50161;SDS011;36061;48.116;11.612;2024-01-15T13:00:19;2.03;;;1.20;;
50161;SDS011;36061;48.116;11.612;2024-01-15T13:02:47;3.00;;;1.70;;
50161;SDS011;36061;48.116;11.612;2024-01-15T13:05:15;3.47;;;1.90;;
50161;SDS011;36061;48.116;11.612;2024-01-15T13:07:43;3.40;;;1.80;;
50161;SDS011;36061;48.116;11.612;2024-01-15T13:10:12;3.93;;;2.10;;
50161;SDS011;36061;48.116;11.612;2024-01-15T13:12:40;3.77;;;1.53;;
50161;SDS011;36061;48.116;11.612;2024-01-15T13:15:08;2.63;;;1.60;;
50161;SDS011;36061;48.116;11.612;2024-01-15T13:17:37;2.80;;;1.70;;
50161;SDS011;36061;48.116;11.612;2024-01-15T13:20:05;2.83;;;1.80;;
50161;SDS011;36061;48.116;11.612;2024-01-15T13:22:33;2.77;;;2.10;;
50161;SDS011;36061;48.116;11.612;2024-01-15T13:25:01;2.63;;;1.40;;
50161;SDS011;36061;48.116;11.612;2024-01-15T13:27:31;3.03;;;1.63;;
50161;SDS011;36061;48.116;11.612;2024-01-15T13:29:59;3.70;;;2.10;;
50161;SDS011;36061;48.116;11.612;2024-01-15T13:32:28;3.57;;;1.83;;
50161;SDS011;36061;48.116;11.612;2024-01-15T13:34:55;4.83;;;2.67;;
50161;SDS011;36061;48.116;11.612;2024-01-15T13:37:23;2.60;;;1.77;;
50161;SDS011;36061;48.116;11.612;2024-01-15T13:39:50;6.97;;;1.73;;
50161;SDS011;36061;48.116;11.612;2024-01-15T13:42:18;2.23;;;1.83;;
50161;SDS011;36061;48.116;11.612;2024-01-15T13:44:48;2.80;;;1.63;;
50161;SDS011;36061;48.116;11.612;2024-01-15T13:47:16;2.60;;;1.93;;
50161;SDS011;36061;48.116;11.612;2024-01-15T13:49:43;9.23;;;2.53;;
50161;SDS011;36061;48.116;11.612;2024-01-15T13:52:11;3.13;;;2.00;;
50161;SDS011;36061;48.116;11.612;2024-01-15T13:54:38;3.17;;;2.00;;
50161;SDS011;36061;48.116;11.612;2024-01-15T13:57:06;3.17;;;2.00;;
50161;SDS011;36061;48.116;11.612;2024-01-15T13:59:33;4.13;;;1.80;;
50161;SDS011;36061;48.116;11.612;2024-01-15T14:02:02;2.97;;;1.70;;
50161;SDS011;36061;48.116;11.612;2024-01-15T14:04:30;3.87;;;1.97;;
50161;SDS011;36061;48.116;11.612;2024-01-15T14:06:57;2.87;;;1.80;;
50161;SDS011;36061;48.116;11.612;2024-01-15T14:09:25;3.80;;;2.37;;
50161;SDS011;36061;48.116;11.612;2024-01-15T14:11:52;3.40;;;2.00;;
50161;SDS011;36061;48.116;11.612;2024-01-15T14:14:20;4.47;;;2.30;;
50161;SDS011;36061;48.116;11.612;2024-01-15T14:16:47;3.33;;;2.20;;
50161;SDS011;36061;48.116;11.612;2024-01-15T14:19:16;2.37;;;2.10;;
50161;SDS011;36061;48.116;11.612;2024-01-15T14:21:44;4.47;;;2.27;;
50161;SDS011;36061;48.116;11.612;2024-01-15T14:24:11;2.27;;;1.80;;
50161;SDS011;36061;48.116;11.612;2024-01-15T14:26:39;3.40;;;1.90;;
50161;SDS011;36061;48.116;11.612;2024-01-15T14:29:07;3.67;;;2.30;;
50161;SDS011;36061;48.116;11.612;2024-01-15T14:31:34;2.97;;;2.20;;
50161;SDS011;36061;48.116;11.612;2024-01-15T14:34:02;3.13;;;1.70;;
50161;SDS011;36061;48.116;11.612;2024-01-15T14:36:30;4.33;;;2.03;;
50161;SDS011;36061;48.116;11.612;2024-01-15T14:38:58;3.63;;;2.00;;
50161;SDS011;36061;48.116;11.612;2024-01-15T14:41:25;2.77;;;1.80;;